Main page
Satellite images 10-day forecastsClimateMarine weather Cyclones Lightning AirportsFAQ Newsletter About
Weather : Europe Africa North America South America Asia Australia-Oceania Others
Languages Contact

London, England

London City Airport

latitude: 51-30N, longitude: 000-03E, elevation: 5 m


METAR: EGLC 311850Z 19007KT 150V220 CAVOK 20/08 Q1015
TAF: EGLC 311659Z 3118/3121 18006KT 9999 FEW045

Time: 20:21 (19:21 UTC)

Current weather observation

The report was made 31 minutes ago, at 18:50 UTC
Wind 7 kt from the South, varying between South/Southeast and Southwest
Temperature 20°C
Humidity 46%
Pressure 1015 hPa
Visibility 10 km or more
no clouds below 1500 m and no cumulonimbus

Change units

Forecast

The report was made 2 hours and 22 minutes ago, at 16:59 UTC
Forecast valid from 31 at 18 UTC to 31 at 21 UTC
Wind 6 kt from the South
Visibility 10 km or more
Few clouds at a height of 4500 ft
The information on this site is subject to a disclaimer
Weather : Europe Africa North America South America Asia Australia-Oceania Others
Satellite images 10-day forecastsClimateMarine weather Cyclones Lightning AirportsFAQ Languages Contact Newsletter About